UAL2611 KSFO-KSBP
Flight info
| Callsign | UAL2611 |
|---|---|
| Flight time | 0h 36m |
| Altitude | 27000 |
| Route | WESLA5 YYUNG MQO |
| Aircraft | A319/M-SDE3FGHIRWY/LB1 |
Departure
| Time | 2026-04-23 17:48 |
|---|---|
| Airport | San Francisco International Airport (KSFO) |
Arrival
| Time | 2026-04-23 18:25 |
|---|---|
| Airport | San Luis County Regional Airport (KSBP) |
| Time | Latitude | Longitude | Altitude | Speed | Heading |
|---|---|---|---|---|---|
| 2026-04-23 17:14 | 37.61711 | -122.38037 | 22 ft | 0 kts | 277° |
| 2026-04-23 17:38 | 37.61711 | -122.38030 | 22 ft | 4 kts | 275° |
| 2026-04-23 17:39 | 37.61711 | -122.37996 | 22 ft | 4 kts | 258° |
| 2026-04-23 17:39 | 37.61719 | -122.37965 | 22 ft | 4 kts | 234° |
| 2026-04-23 17:39 | 37.61737 | -122.37945 | 22 ft | 2 kts | 184° |
| 2026-04-23 17:39 | 37.61739 | -122.37945 | 23 ft | 0 kts | 183° |
| 2026-04-23 17:42 | 37.61727 | -122.37944 | 24 ft | 4 kts | 168° |
| 2026-04-23 17:43 | 37.61698 | -122.37907 | 23 ft | 8 kts | 117° |
| 2026-04-23 17:43 | 37.61673 | -122.37814 | 22 ft | 14 kts | 103° |
| 2026-04-23 17:43 | 37.61653 | -122.37670 | 22 ft | 17 kts | 97° |
| 2026-04-23 17:43 | 37.61637 | -122.37502 | 22 ft | 21 kts | 97° |
| 2026-04-23 17:44 | 37.61627 | -122.37400 | 22 ft | 7 kts | 97° |
| 2026-04-23 17:44 | 37.61620 | -122.37322 | 22 ft | 11 kts | 97° |
| 2026-04-23 17:44 | 37.61549 | -122.37103 | 22 ft | 16 kts | 117° |
| 2026-04-23 17:45 | 37.61491 | -122.36969 | 22 ft | 18 kts | 119° |
| 2026-04-23 17:45 | 37.61331 | -122.36692 | 24 ft | 22 kts | 117° |
| 2026-04-23 17:45 | 37.61255 | -122.36512 | 23 ft | 25 kts | 118° |
| 2026-04-23 17:46 | 37.61079 | -122.36101 | 22 ft | 30 kts | 118° |
| 2026-04-23 17:46 | 37.61084 | -122.35927 | 22 ft | 17 kts | 45° |
| 2026-04-23 17:46 | 37.61181 | -122.35887 | 22 ft | 13 kts | 327° |
| 2026-04-23 17:47 | 37.61213 | -122.35941 | 22 ft | 2 kts | 297° |
| 2026-04-23 17:47 | 37.61282 | -122.36108 | 23 ft | 52 kts | 297° |
| 2026-04-23 17:47 | 37.62010 | -122.37830 | 26 ft | 165 kts | 298° |
| 2026-04-23 17:48 | 37.62567 | -122.39152 | 527 ft | 174 kts | 299° |
| 2026-04-23 17:48 | 37.63145 | -122.40508 | 1293 ft | 175 kts | 299° |
| 2026-04-23 17:48 | 37.63731 | -122.41860 | 1979 ft | 180 kts | 300° |
| 2026-04-23 17:48 | 37.64379 | -122.43339 | 2380 ft | 205 kts | 300° |
| 2026-04-23 17:49 | 37.65115 | -122.45007 | 2925 ft | 229 kts | 300° |
| 2026-04-23 17:49 | 37.65904 | -122.46800 | 3806 ft | 237 kts | 300° |
| 2026-04-23 17:49 | 37.66696 | -122.48646 | 4771 ft | 245 kts | 296° |
| 2026-04-23 17:49 | 37.66943 | -122.50852 | 5408 ft | 268 kts | 259° |
| 2026-04-23 17:50 | 37.66068 | -122.52933 | 6307 ft | 278 kts | 225° |
| 2026-04-23 17:50 | 37.62378 | -122.53940 | 8122 ft | 291 kts | 163° |
| 2026-04-23 17:50 | 37.60486 | -122.53002 | 9064 ft | 295 kts | 154° |
| 2026-04-23 17:51 | 37.58630 | -122.51857 | 9975 ft | 300 kts | 153° |
| 2026-04-23 17:51 | 37.56714 | -122.50659 | 10497 ft | 319 kts | 153° |
| 2026-04-23 17:51 | 37.52331 | -122.48358 | 11213 ft | 358 kts | 162° |
| 2026-04-23 17:52 | 37.49890 | -122.47617 | 11913 ft | 364 kts | 174° |
| 2026-04-23 17:52 | 37.44830 | -122.48285 | 13438 ft | 371 kts | 191° |
| 2026-04-23 17:52 | 37.42270 | -122.48824 | 14168 ft | 374 kts | 189° |
| 2026-04-23 17:53 | 37.37954 | -122.49603 | 15252 ft | 380 kts | 188° |
| 2026-04-23 17:53 | 37.35319 | -122.50053 | 15898 ft | 384 kts | 188° |
| 2026-04-23 17:53 | 37.32657 | -122.50510 | 16553 ft | 388 kts | 188° |
| 2026-04-23 17:54 | 37.29971 | -122.50985 | 17201 ft | 392 kts | 188° |
| 2026-04-23 17:54 | 37.27264 | -122.51481 | 17854 ft | 395 kts | 188° |
| 2026-04-23 17:54 | 37.21769 | -122.52514 | 19087 ft | 403 kts | 189° |
| 2026-04-23 17:55 | 37.16193 | -122.53549 | 20313 ft | 408 kts | 190° |
| 2026-04-23 17:55 | 37.13387 | -122.54065 | 20914 ft | 410 kts | 190° |
| 2026-04-23 17:55 | 37.10550 | -122.54587 | 21488 ft | 413 kts | 191° |
| 2026-04-23 17:56 | 37.07698 | -122.55117 | 22043 ft | 415 kts | 191° |
| 2026-04-23 17:56 | 37.01889 | -122.55474 | 23080 ft | 427 kts | 175° |
| 2026-04-23 17:56 | 36.98968 | -122.54656 | 23583 ft | 434 kts | 165° |
| 2026-04-23 17:57 | 36.96181 | -122.53152 | 24016 ft | 441 kts | 153° |
| 2026-04-23 17:57 | 36.93559 | -122.51215 | 24417 ft | 444 kts | 152° |
| 2026-04-23 17:57 | 36.88167 | -122.47230 | 25220 ft | 450 kts | 153° |
| 2026-04-23 17:58 | 36.85458 | -122.45244 | 25614 ft | 453 kts | 153° |
| 2026-04-23 17:58 | 36.82736 | -122.43254 | 26006 ft | 456 kts | 153° |
| 2026-04-23 17:58 | 36.80045 | -122.41288 | 26398 ft | 458 kts | 153° |
| 2026-04-23 17:58 | 36.77265 | -122.39256 | 26789 ft | 461 kts | 154° |
| 2026-04-23 17:59 | 36.74491 | -122.37229 | 27169 ft | 464 kts | 154° |
| 2026-04-23 17:59 | 36.71692 | -122.35184 | 27552 ft | 467 kts | 154° |
| 2026-04-23 17:59 | 36.68885 | -122.33134 | 27918 ft | 469 kts | 154° |
| 2026-04-23 17:59 | 36.66060 | -122.31072 | 28166 ft | 471 kts | 154° |
| 2026-04-23 18:00 | 36.63240 | -122.29015 | 28222 ft | 469 kts | 154° |
| 2026-04-23 18:00 | 36.57613 | -122.24913 | 28184 ft | 466 kts | 154° |
| 2026-04-23 18:00 | 36.54831 | -122.22885 | 27527 ft | 465 kts | 154° |
| 2026-04-23 18:01 | 36.52036 | -122.20852 | 27250 ft | 468 kts | 154° |
| 2026-04-23 18:01 | 36.49212 | -122.18801 | 27186 ft | 469 kts | 154° |
| 2026-04-23 18:01 | 36.46535 | -122.16858 | 27207 ft | 468 kts | 154° |
| 2026-04-23 18:01 | 36.43741 | -122.14831 | 27202 ft | 465 kts | 154° |
| 2026-04-23 18:02 | 36.40952 | -122.12810 | 27198 ft | 464 kts | 154° |
| 2026-04-23 18:02 | 36.38158 | -122.10789 | 27206 ft | 464 kts | 154° |
| 2026-04-23 18:02 | 36.35365 | -122.08773 | 27203 ft | 464 kts | 154° |
| 2026-04-23 18:02 | 36.32578 | -122.06757 | 27205 ft | 464 kts | 154° |
| 2026-04-23 18:03 | 36.29785 | -122.04737 | 27191 ft | 464 kts | 155° |
| 2026-04-23 18:03 | 36.26994 | -122.02720 | 27190 ft | 465 kts | 155° |
| 2026-04-23 18:03 | 36.24199 | -122.00707 | 27195 ft | 465 kts | 155° |
| 2026-04-23 18:03 | 36.21407 | -121.98700 | 27187 ft | 465 kts | 155° |
| 2026-04-23 18:04 | 36.18608 | -121.96690 | 27182 ft | 464 kts | 155° |
| 2026-04-23 18:04 | 36.15819 | -121.94686 | 27180 ft | 464 kts | 155° |
| 2026-04-23 18:04 | 36.13025 | -121.92678 | 27171 ft | 464 kts | 155° |
| 2026-04-23 18:04 | 36.10229 | -121.90672 | 27169 ft | 464 kts | 155° |
| 2026-04-23 18:05 | 36.07440 | -121.88672 | 27154 ft | 464 kts | 155° |
| 2026-04-23 18:05 | 36.04643 | -121.86665 | 27152 ft | 464 kts | 155° |
| 2026-04-23 18:05 | 36.01894 | -121.84574 | 27152 ft | 468 kts | 149° |
| 2026-04-23 18:05 | 35.99375 | -121.81990 | 27158 ft | 473 kts | 139° |
| 2026-04-23 18:06 | 35.97199 | -121.78909 | 27148 ft | 478 kts | 131° |
| 2026-04-23 18:06 | 35.95178 | -121.75657 | 27151 ft | 478 kts | 131° |
| 2026-04-23 18:06 | 35.93154 | -121.72407 | 27154 ft | 478 kts | 131° |
| 2026-04-23 18:06 | 35.91122 | -121.69156 | 27151 ft | 478 kts | 131° |
| 2026-04-23 18:07 | 35.89080 | -121.65906 | 27147 ft | 478 kts | 131° |
| 2026-04-23 18:07 | 35.87041 | -121.62667 | 27148 ft | 478 kts | 131° |
| 2026-04-23 18:07 | 35.84997 | -121.59434 | 27148 ft | 478 kts | 131° |
| 2026-04-23 18:07 | 35.82951 | -121.56203 | 27154 ft | 478 kts | 131° |
| 2026-04-23 18:08 | 35.81598 | -121.54066 | 27151 ft | 478 kts | 131° |
| 2026-04-23 18:08 | 35.78868 | -121.49753 | 27149 ft | 479 kts | 131° |
| 2026-04-23 18:08 | 35.76823 | -121.46521 | 27148 ft | 479 kts | 131° |
| 2026-04-23 18:08 | 35.74778 | -121.43289 | 27067 ft | 479 kts | 131° |
| 2026-04-23 18:09 | 35.72738 | -121.40060 | 26577 ft | 476 kts | 131° |
| 2026-04-23 18:09 | 35.70702 | -121.36836 | 25790 ft | 477 kts | 131° |
| 2026-04-23 18:09 | 35.68666 | -121.33622 | 25012 ft | 476 kts | 131° |
| 2026-04-23 18:09 | 35.66632 | -121.30421 | 24252 ft | 475 kts | 131° |
| 2026-04-23 18:10 | 35.64593 | -121.27218 | 23439 ft | 474 kts | 131° |
| 2026-04-23 18:10 | 35.62568 | -121.24036 | 22658 ft | 470 kts | 131° |
| 2026-04-23 18:10 | 35.60567 | -121.20888 | 21900 ft | 465 kts | 131° |
| 2026-04-23 18:10 | 35.58583 | -121.17772 | 21172 ft | 460 kts | 131° |
| 2026-04-23 18:11 | 35.56624 | -121.14708 | 20477 ft | 455 kts | 130° |
| 2026-04-23 18:11 | 35.54676 | -121.11666 | 19796 ft | 450 kts | 130° |
| 2026-04-23 18:11 | 35.52755 | -121.08667 | 19149 ft | 445 kts | 130° |
| 2026-04-23 18:11 | 35.50729 | -121.05833 | 18572 ft | 437 kts | 138° |
| 2026-04-23 18:12 | 35.48549 | -121.03268 | 17952 ft | 431 kts | 139° |
| 2026-04-23 18:12 | 35.46401 | -121.00744 | 17384 ft | 425 kts | 139° |
| 2026-04-23 18:12 | 35.44280 | -120.98251 | 16808 ft | 419 kts | 138° |
| 2026-04-23 18:12 | 35.44151 | -120.98099 | 16773 ft | 419 kts | 138° |
| 2026-04-23 18:13 | 35.42029 | -120.95611 | 16170 ft | 413 kts | 138° |
| 2026-04-23 18:13 | 35.39961 | -120.93188 | 15575 ft | 408 kts | 138° |
| 2026-04-23 18:13 | 35.37928 | -120.90806 | 14974 ft | 402 kts | 138° |
| 2026-04-23 18:13 | 35.35925 | -120.88464 | 14222 ft | 402 kts | 137° |
| 2026-04-23 18:14 | 35.33912 | -120.86113 | 13563 ft | 397 kts | 137° |
| 2026-04-23 18:14 | 35.31928 | -120.83794 | 12923 ft | 391 kts | 137° |
| 2026-04-23 18:14 | 35.29980 | -120.81514 | 12291 ft | 385 kts | 137° |
| 2026-04-23 18:14 | 35.28054 | -120.79262 | 11669 ft | 380 kts | 136° |
| 2026-04-23 18:15 | 35.26157 | -120.77045 | 11050 ft | 375 kts | 136° |
| 2026-04-23 18:15 | 35.24204 | -120.75004 | 10746 ft | 361 kts | 143° |
| 2026-04-23 18:15 | 35.22260 | -120.73192 | 10628 ft | 345 kts | 143° |
| 2026-04-23 18:15 | 35.20392 | -120.71439 | 10504 ft | 330 kts | 143° |
| 2026-04-23 18:16 | 35.18611 | -120.69764 | 10385 ft | 318 kts | 142° |
| 2026-04-23 18:16 | 35.16892 | -120.68150 | 10241 ft | 309 kts | 143° |
| 2026-04-23 18:16 | 35.15192 | -120.66559 | 10093 ft | 304 kts | 142° |
| 2026-04-23 18:17 | 35.11857 | -120.63447 | 9474 ft | 305 kts | 142° |
| 2026-04-23 18:17 | 35.10156 | -120.61860 | 9058 ft | 306 kts | 142° |
| 2026-04-23 18:17 | 35.08463 | -120.60280 | 8568 ft | 307 kts | 142° |
| 2026-04-23 18:17 | 35.06763 | -120.58694 | 8134 ft | 307 kts | 141° |
| 2026-04-23 18:18 | 35.05083 | -120.57100 | 7690 ft | 304 kts | 137° |
| 2026-04-23 18:18 | 35.03899 | -120.55052 | 7274 ft | 293 kts | 107° |
| 2026-04-23 18:18 | 35.03686 | -120.52660 | 6865 ft | 281 kts | 78° |
| 2026-04-23 18:18 | 35.04399 | -120.50498 | 6404 ft | 273 kts | 51° |
| 2026-04-23 18:19 | 35.05778 | -120.48977 | 5971 ft | 266 kts | 33° |
| 2026-04-23 18:19 | 35.07292 | -120.47709 | 5548 ft | 263 kts | 33° |
| 2026-04-23 18:19 | 35.08792 | -120.46448 | 5133 ft | 259 kts | 33° |
| 2026-04-23 18:19 | 35.10283 | -120.45218 | 4703 ft | 258 kts | 30° |
| 2026-04-23 18:20 | 35.11992 | -120.44704 | 4295 ft | 256 kts | 357° |
| 2026-04-23 18:20 | 35.13579 | -120.45533 | 3952 ft | 249 kts | 322° |
| 2026-04-23 18:20 | 35.14693 | -120.47118 | 3604 ft | 240 kts | 307° |
| 2026-04-23 18:20 | 35.15536 | -120.48791 | 3288 ft | 222 kts | 303° |
| 2026-04-23 18:21 | 35.16277 | -120.50370 | 3005 ft | 206 kts | 302° |
| 2026-04-23 18:21 | 35.16982 | -120.51820 | 2736 ft | 192 kts | 304° |
| 2026-04-23 18:21 | 35.17644 | -120.53119 | 2490 ft | 168 kts | 306° |
| 2026-04-23 18:21 | 35.18243 | -120.54251 | 2249 ft | 150 kts | 308° |
| 2026-04-23 18:22 | 35.18793 | -120.55268 | 2024 ft | 138 kts | 308° |
| 2026-04-23 18:22 | 35.19321 | -120.56231 | 1819 ft | 136 kts | 308° |
| 2026-04-23 18:22 | 35.19845 | -120.57175 | 1616 ft | 133 kts | 308° |
| 2026-04-23 18:22 | 35.20356 | -120.58091 | 1408 ft | 130 kts | 308° |
| 2026-04-23 18:23 | 35.20695 | -120.58696 | 1277 ft | 129 kts | 308° |
| 2026-04-23 18:23 | 35.21812 | -120.60789 | 787 ft | 125 kts | 307° |
| 2026-04-23 18:24 | 35.22825 | -120.62499 | 385 ft | 123 kts | 304° |
| 2026-04-23 18:24 | 35.23306 | -120.63349 | 214 ft | 123 kts | 303° |
| 2026-04-23 18:24 | 35.23709 | -120.64068 | 191 ft | 69 kts | 304° |
| 2026-04-23 18:25 | 35.24112 | -120.64777 | 197 ft | 41 kts | 306° |
| 2026-04-23 18:25 | 35.24245 | -120.64861 | 188 ft | 16 kts | 62° |
| 2026-04-23 18:25 | 35.24202 | -120.64735 | 190 ft | 18 kts | 126° |
| 2026-04-23 18:25 | 35.24123 | -120.64599 | 187 ft | 21 kts | 125° |
| 2026-04-23 18:26 | 35.24042 | -120.64453 | 184 ft | 21 kts | 123° |
| 2026-04-23 18:26 | 35.23953 | -120.64299 | 201 ft | 24 kts | 124° |
| 2026-04-23 18:26 | 35.23846 | -120.64131 | 185 ft | 26 kts | 124° |
| 2026-04-23 18:26 | 35.23771 | -120.63988 | 194 ft | 17 kts | 120° |
| 2026-04-23 18:27 | 35.23771 | -120.63892 | 187 ft | 11 kts | 62° |
| 2026-04-23 18:27 | 35.23777 | -120.63858 | 192 ft | 1 kts | 87° |
| 2026-04-23 18:27 | 35.23777 | -120.63844 | 187 ft | 0 kts | 89° |
| 2026-04-23 18:27 | 35.23777 | -120.63840 | 184 ft | 0 kts | 89° |